Terminal Aerodrome Forecast
Issued by NWS Charleston, WV

Current Version | Previous Version | Graphics & Text | Print | Product List | Glossary On
Versions: 1 2 3 4 5 6 7 8 9 10 11 12 13 14 15 16 17 18 19 20 21 22 23 24 25
000
FTUS41 KRLX 260500 RRA
TAFCRW
TAF
KCRW 260545Z 2606/2706 VRB03KT P6SM OVC100
     FM261000 VRB03KT P6SM OVC035
     FM261200 00000KT P6SM OVC020
     FM261400 00000KT P6SM OVC025
     FM270000 33004KT 3SM -SHSN BR BKN010
     FM270200 VRB03KT 3SM BR BKN010=

USA.gov is the U.S. government's official web portal to all federal, state and local government web resources and services.